ANA781 RJOO-RJFU
Flight info
| Callsign | ANA781 |
|---|---|
| Flight time | 1h 0m |
| Altitude | 34000 |
| Route | TIGER SUMAR AYAME SETOH SOUJA Y281 UKELI Y204 OHGIE |
| Aircraft | B77W/H-SDE1E2E3FGHIJ2J3J4J5M1RWXY/LB1D1 |
Departure
| Time | 2026-05-04 10:26 |
|---|---|
| Airport | Osaka Itami International Airport (RJOO) |
Arrival
| Time | 2026-05-04 11:26 |
|---|---|
| Airport | Nagasaki Airport (RJFU) |
| Time | Latitude | Longitude | Altitude | Speed | Heading |
|---|---|---|---|---|---|
| 2026-05-04 09:01 | 34.79125 | 135.43914 | 55 ft | 0 kts | 66° |
| 2026-05-04 10:11 | 34.79124 | 135.43913 | 55 ft | 1 kts | 66° |
| 2026-05-04 10:11 | 34.79116 | 135.43889 | 47 ft | 3 kts | 66° |
| 2026-05-04 10:11 | 34.79107 | 135.43864 | 47 ft | 3 kts | 66° |
| 2026-05-04 10:12 | 34.79098 | 135.43839 | 27 ft | 3 kts | 66° |
| 2026-05-04 10:12 | 34.79089 | 135.43814 | 9 ft | 3 kts | 66° |
| 2026-05-04 10:12 | 34.79082 | 135.43793 | 71 ft | 3 kts | 69° |
| 2026-05-04 10:12 | 34.79075 | 135.43767 | 53 ft | 3 kts | 79° |
| 2026-05-04 10:13 | 34.79073 | 135.43741 | 48 ft | 3 kts | 101° |
| 2026-05-04 10:13 | 34.79080 | 135.43718 | 47 ft | 2 kts | 135° |
| 2026-05-04 10:13 | 34.79096 | 135.43700 | 47 ft | 3 kts | 135° |
| 2026-05-04 10:13 | 34.79112 | 135.43680 | 47 ft | 3 kts | 135° |
| 2026-05-04 10:14 | 34.79128 | 135.43661 | 47 ft | 3 kts | 135° |
| 2026-05-04 10:14 | 34.79137 | 135.43649 | 47 ft | 0 kts | 135° |
| 2026-05-04 10:19 | 34.78897 | 135.43886 | 51 ft | 11 kts | 163° |
| 2026-05-04 10:19 | 34.78812 | 135.43924 | 53 ft | 16 kts | 149° |
| 2026-05-04 10:19 | 34.78724 | 135.44023 | 50 ft | 15 kts | 135° |
| 2026-05-04 10:19 | 34.78656 | 135.44107 | 49 ft | 16 kts | 135° |
| 2026-05-04 10:20 | 34.78566 | 135.44215 | 52 ft | 20 kts | 135° |
| 2026-05-04 10:20 | 34.78463 | 135.44322 | 51 ft | 17 kts | 157° |
| 2026-05-04 10:20 | 34.78331 | 135.44336 | 52 ft | 20 kts | 179° |
| 2026-05-04 10:20 | 34.78201 | 135.44339 | 51 ft | 17 kts | 171° |
| 2026-05-04 10:21 | 34.78094 | 135.44435 | 48 ft | 21 kts | 135° |
| 2026-05-04 10:21 | 34.77992 | 135.44559 | 51 ft | 21 kts | 135° |
| 2026-05-04 10:21 | 34.77887 | 135.44685 | 49 ft | 21 kts | 135° |
| 2026-05-04 10:21 | 34.77784 | 135.44812 | 49 ft | 21 kts | 135° |
| 2026-05-04 10:22 | 34.77576 | 135.45064 | 48 ft | 21 kts | 135° |
| 2026-05-04 10:22 | 34.77472 | 135.45191 | 51 ft | 21 kts | 135° |
| 2026-05-04 10:22 | 34.77371 | 135.45291 | 50 ft | 18 kts | 154° |
| 2026-05-04 10:23 | 34.77284 | 135.45281 | 52 ft | 6 kts | 221° |
| 2026-05-04 10:23 | 34.77276 | 135.45270 | 51 ft | 4 kts | 230° |
| 2026-05-04 10:25 | 34.77468 | 135.44883 | 51 ft | 53 kts | 315° |
| 2026-05-04 10:25 | 34.77933 | 135.44321 | 49 ft | 132 kts | 314° |
| 2026-05-04 10:25 | 34.78715 | 135.43367 | 209 ft | 174 kts | 315° |
| 2026-05-04 10:25 | 34.79512 | 135.42158 | 542 ft | 201 kts | 296° |
| 2026-05-04 10:26 | 34.79817 | 135.40576 | 1692 ft | 188 kts | 271° |
| 2026-05-04 10:26 | 34.79328 | 135.39110 | 2607 ft | 199 kts | 234° |
| 2026-05-04 10:26 | 34.78234 | 135.37957 | 3088 ft | 217 kts | 223° |
| 2026-05-04 10:26 | 34.76872 | 135.37037 | 3588 ft | 238 kts | 199° |
| 2026-05-04 10:27 | 34.75134 | 135.36970 | 4057 ft | 265 kts | 171° |
| 2026-05-04 10:27 | 34.73342 | 135.37699 | 4632 ft | 282 kts | 161° |
| 2026-05-04 10:27 | 34.71426 | 135.38547 | 5029 ft | 300 kts | 168° |
| 2026-05-04 10:27 | 34.69423 | 135.38650 | 6088 ft | 285 kts | 195° |
| 2026-05-04 10:28 | 34.67547 | 135.37956 | 6369 ft | 289 kts | 204° |
| 2026-05-04 10:28 | 34.65624 | 135.37091 | 6763 ft | 294 kts | 211° |
| 2026-05-04 10:28 | 34.64208 | 135.35601 | 8097 ft | 257 kts | 245° |
| 2026-05-04 10:28 | 34.63767 | 135.33552 | 8826 ft | 251 kts | 279° |
| 2026-05-04 10:29 | 34.64322 | 135.31652 | 9902 ft | 234 kts | 299° |
| 2026-05-04 10:29 | 34.65079 | 135.29894 | 10545 ft | 243 kts | 295° |
| 2026-05-04 10:29 | 34.65794 | 135.27946 | 10482 ft | 257 kts | 292° |
| 2026-05-04 10:29 | 34.66384 | 135.25854 | 10627 ft | 271 kts | 286° |
| 2026-05-04 10:30 | 34.66884 | 135.23525 | 10853 ft | 300 kts | 284° |
| 2026-05-04 10:30 | 34.67387 | 135.20932 | 11080 ft | 328 kts | 283° |
| 2026-05-04 10:30 | 34.67897 | 135.18227 | 11849 ft | 338 kts | 283° |
| 2026-05-04 10:30 | 34.68423 | 135.15417 | 12937 ft | 342 kts | 282° |
| 2026-05-04 10:31 | 34.68959 | 135.12592 | 14081 ft | 344 kts | 282° |
| 2026-05-04 10:31 | 34.69502 | 135.09750 | 15068 ft | 348 kts | 282° |
| 2026-05-04 10:32 | 34.68881 | 134.92066 | 20063 ft | 365 kts | 258° |
| 2026-05-04 10:33 | 34.68333 | 134.89054 | 21086 ft | 364 kts | 258° |
| 2026-05-04 10:33 | 34.67780 | 134.86046 | 21972 ft | 366 kts | 258° |
| 2026-05-04 10:33 | 34.67217 | 134.83018 | 22803 ft | 369 kts | 257° |
| 2026-05-04 10:33 | 34.66644 | 134.79964 | 23613 ft | 372 kts | 257° |
| 2026-05-04 10:34 | 34.66066 | 134.76901 | 24316 ft | 373 kts | 257° |
| 2026-05-04 10:34 | 34.65491 | 134.73868 | 25007 ft | 373 kts | 256° |
| 2026-05-04 10:34 | 34.64907 | 134.70794 | 25691 ft | 375 kts | 256° |
| 2026-05-04 10:34 | 34.64317 | 134.67699 | 26331 ft | 377 kts | 256° |
| 2026-05-04 10:35 | 34.63725 | 134.64593 | 26971 ft | 379 kts | 255° |
| 2026-05-04 10:35 | 34.63129 | 134.61472 | 27631 ft | 380 kts | 255° |
| 2026-05-04 10:35 | 34.62531 | 134.58343 | 28279 ft | 380 kts | 255° |
| 2026-05-04 10:35 | 34.61931 | 134.55209 | 28888 ft | 381 kts | 255° |
| 2026-05-04 10:36 | 34.61329 | 134.52066 | 29398 ft | 383 kts | 255° |
| 2026-05-04 10:36 | 34.60723 | 134.48908 | 29930 ft | 384 kts | 255° |
| 2026-05-04 10:36 | 34.60127 | 134.45808 | 30516 ft | 380 kts | 254° |
| 2026-05-04 10:36 | 34.59526 | 134.42685 | 31017 ft | 380 kts | 254° |
| 2026-05-04 10:37 | 34.58930 | 134.39580 | 31714 ft | 375 kts | 254° |
| 2026-05-04 10:37 | 34.58339 | 134.36499 | 32041 ft | 376 kts | 253° |
| 2026-05-04 10:37 | 34.57163 | 134.30368 | 32023 ft | 370 kts | 253° |
| 2026-05-04 10:39 | 34.53091 | 134.09138 | 32029 ft | 371 kts | 253° |
| 2026-05-04 10:40 | 34.51917 | 134.03043 | 32033 ft | 371 kts | 253° |
| 2026-05-04 10:40 | 34.50749 | 133.96994 | 32043 ft | 370 kts | 253° |
| 2026-05-04 10:41 | 34.49582 | 133.90931 | 32039 ft | 368 kts | 253° |
| 2026-05-04 10:41 | 34.48422 | 133.84898 | 32027 ft | 367 kts | 253° |
| 2026-05-04 10:42 | 34.47260 | 133.78869 | 32041 ft | 368 kts | 253° |
| 2026-05-04 10:42 | 34.46090 | 133.72825 | 32042 ft | 368 kts | 253° |
| 2026-05-04 10:43 | 34.44931 | 133.66836 | 32044 ft | 367 kts | 253° |
| 2026-05-04 10:45 | 34.40268 | 133.42797 | 32066 ft | 368 kts | 253° |
| 2026-05-04 10:45 | 34.39092 | 133.36759 | 32041 ft | 369 kts | 253° |
| 2026-05-04 10:46 | 34.37916 | 133.30703 | 32043 ft | 370 kts | 253° |
| 2026-05-04 10:46 | 34.36731 | 133.24633 | 32041 ft | 371 kts | 253° |
| 2026-05-04 10:47 | 34.35679 | 133.18414 | 32047 ft | 391 kts | 256° |
| 2026-05-04 10:47 | 34.34728 | 133.11850 | 32026 ft | 398 kts | 256° |
| 2026-05-04 10:49 | 34.30796 | 132.85396 | 32029 ft | 400 kts | 257° |
| 2026-05-04 10:50 | 34.29792 | 132.78780 | 32025 ft | 400 kts | 257° |
| 2026-05-04 10:52 | 34.25757 | 132.52422 | 32053 ft | 399 kts | 257° |
| 2026-05-04 10:52 | 34.24732 | 132.45825 | 32054 ft | 399 kts | 257° |
| 2026-05-04 10:54 | 34.20638 | 132.19589 | 32060 ft | 396 kts | 256° |
| 2026-05-04 10:56 | 34.16494 | 131.93389 | 32031 ft | 396 kts | 256° |
| 2026-05-04 10:57 | 34.15447 | 131.86858 | 32058 ft | 396 kts | 256° |
| 2026-05-04 10:57 | 34.14396 | 131.80359 | 32054 ft | 398 kts | 256° |
| 2026-05-04 10:58 | 34.13341 | 131.73786 | 32049 ft | 401 kts | 256° |
| 2026-05-04 10:58 | 34.12275 | 131.67167 | 32053 ft | 403 kts | 256° |
| 2026-05-04 10:59 | 34.11196 | 131.60518 | 32046 ft | 403 kts | 256° |
| 2026-05-04 10:59 | 34.10129 | 131.53935 | 32049 ft | 403 kts | 256° |
| 2026-05-04 11:00 | 34.09042 | 131.47289 | 32046 ft | 404 kts | 256° |
| 2026-05-04 11:01 | 34.03596 | 131.24758 | 32045 ft | 400 kts | 243° |
| 2026-05-04 11:02 | 34.02333 | 131.21770 | 32052 ft | 400 kts | 243° |
| 2026-05-04 11:05 | 33.83666 | 130.77086 | 30579 ft | 383 kts | 243° |
| 2026-05-04 11:06 | 33.82468 | 130.74234 | 29834 ft | 381 kts | 243° |
| 2026-05-04 11:06 | 33.81290 | 130.71435 | 29060 ft | 380 kts | 243° |
| 2026-05-04 11:06 | 33.80100 | 130.68608 | 28339 ft | 378 kts | 244° |
| 2026-05-04 11:06 | 33.78918 | 130.65798 | 27656 ft | 376 kts | 244° |
| 2026-05-04 11:08 | 33.70709 | 130.46338 | 22907 ft | 376 kts | 246° |
| 2026-05-04 11:10 | 33.56865 | 130.32352 | 18368 ft | 392 kts | 212° |
| 2026-05-04 11:12 | 33.39891 | 130.21960 | 13786 ft | 393 kts | 212° |
| 2026-05-04 11:12 | 33.37483 | 130.20482 | 13081 ft | 394 kts | 212° |
| 2026-05-04 11:12 | 33.35053 | 130.18991 | 12486 ft | 392 kts | 212° |
| 2026-05-04 11:12 | 33.32588 | 130.17713 | 11779 ft | 385 kts | 199° |
| 2026-05-04 11:13 | 33.29935 | 130.17461 | 11203 ft | 380 kts | 181° |
| 2026-05-04 11:13 | 33.27346 | 130.17546 | 10907 ft | 365 kts | 185° |
| 2026-05-04 11:13 | 33.24851 | 130.17388 | 10739 ft | 354 kts | 187° |
| 2026-05-04 11:13 | 33.22419 | 130.17186 | 10580 ft | 345 kts | 187° |
| 2026-05-04 11:14 | 33.20052 | 130.17006 | 10430 ft | 337 kts | 187° |
| 2026-05-04 11:14 | 33.17765 | 130.16852 | 10264 ft | 317 kts | 187° |
| 2026-05-04 11:14 | 33.16349 | 130.16763 | 10170 ft | 299 kts | 187° |
| 2026-05-04 11:16 | 33.01849 | 130.15835 | 8621 ft | 272 kts | 186° |
| 2026-05-04 11:16 | 32.99989 | 130.15718 | 8510 ft | 263 kts | 186° |
| 2026-05-04 11:16 | 32.98214 | 130.15608 | 8391 ft | 253 kts | 186° |
| 2026-05-04 11:17 | 32.96476 | 130.15494 | 7961 ft | 250 kts | 186° |
| 2026-05-04 11:17 | 32.94745 | 130.15381 | 7686 ft | 247 kts | 186° |
| 2026-05-04 11:19 | 32.83135 | 130.14654 | 5743 ft | 230 kts | 186° |
| 2026-05-04 11:19 | 32.81554 | 130.14556 | 5686 ft | 225 kts | 186° |
| 2026-05-04 11:19 | 32.80079 | 130.14214 | 5533 ft | 209 kts | 213° |
| 2026-05-04 11:19 | 32.79085 | 130.13082 | 5247 ft | 194 kts | 237° |
| 2026-05-04 11:20 | 32.78220 | 130.11867 | 4795 ft | 193 kts | 233° |
| 2026-05-04 11:20 | 32.77391 | 130.10624 | 4300 ft | 189 kts | 249° |
| 2026-05-04 11:20 | 32.77324 | 130.09191 | 3842 ft | 174 kts | 296° |
| 2026-05-04 11:20 | 32.77862 | 130.07913 | 3639 ft | 177 kts | 295° |
| 2026-05-04 11:22 | 32.82781 | 130.00883 | 2119 ft | 149 kts | 317° |
| 2026-05-04 11:22 | 32.83819 | 129.99774 | 1836 ft | 154 kts | 317° |
| 2026-05-04 11:23 | 32.84609 | 129.98929 | 1612 ft | 150 kts | 317° |
| 2026-05-04 11:23 | 32.85360 | 129.98130 | 1407 ft | 140 kts | 316° |
| 2026-05-04 11:24 | 32.89384 | 129.93821 | 403 ft | 133 kts | 317° |
| 2026-05-04 11:25 | 32.90315 | 129.92818 | 177 ft | 137 kts | 317° |
| 2026-05-04 11:25 | 32.91018 | 129.92068 | 32 ft | 134 kts | 317° |
| 2026-05-04 11:25 | 32.91459 | 129.91597 | 19 ft | 116 kts | 318° |
| 2026-05-04 11:26 | 32.92212 | 129.90797 | 26 ft | 42 kts | 316° |
| 2026-05-04 11:27 | 32.92121 | 129.91167 | 25 ft | 14 kts | 139° |
| 2026-05-04 11:28 | 32.92045 | 129.91249 | 23 ft | 15 kts | 137° |
| 2026-05-04 11:28 | 32.91967 | 129.91333 | 25 ft | 15 kts | 137° |
| 2026-05-04 11:28 | 32.91889 | 129.91416 | 25 ft | 15 kts | 139° |
| 2026-05-04 11:28 | 32.91810 | 129.91499 | 27 ft | 15 kts | 139° |
| 2026-05-04 11:29 | 32.91731 | 129.91584 | 25 ft | 15 kts | 137° |
| 2026-05-04 11:29 | 32.91649 | 129.91672 | 25 ft | 17 kts | 137° |
| 2026-05-04 11:29 | 32.91566 | 129.91762 | 26 ft | 16 kts | 137° |
| 2026-05-04 11:29 | 32.91490 | 129.91842 | 24 ft | 15 kts | 138° |
| 2026-05-04 11:31 | 32.91224 | 129.92123 | 23 ft | 7 kts | 135° |
| 2026-05-04 11:33 | 32.91292 | 129.92263 | 26 ft | 0 kts | 49° |